INFORMACIÓN METAR y TAF
METAR FOR LEPA
ADDS - METARS form results

(2105 UTC 17 January 2020)
Data provider http://aviationweather.gov/metar/data/
 
METAR text: LEPA 172100Z 00000KT 9999 FEW010 08/06 Q1030 NOSIG
Conditions at: LEPA (PALMA DE MALLORC, ES) observed 2100 UTC 17 January 2020
Temperature: 8.0°C (46°F)
Dewpoint: 6.0°C (43°F) [RH = 87%]
Pressure (altimeter): 30.41 inches Hg (1030.0 mb)
Winds: calm
Visibility: 6 or more miles (10+ km)
Ceiling: at least 12,000 feet AGL
Clouds: few clouds at 1000 feet AGL
Weather: no significant weather observed at this time

METAR text: LEPA 172030Z 00000KT 9999 FEW010 09/07 Q1030 NOSIG
Conditions at: LEPA (PALMA DE MALLORC, ES) observed 2030 UTC 17 January 2020
Temperature: 9.0°C (48°F)
Dewpoint: 7.0°C (45°F) [RH = 87%]
Pressure (altimeter): 30.41 inches Hg (1030.0 mb)
Winds: calm
Visibility: 6 or more miles (10+ km)
Ceiling: at least 12,000 feet AGL
Clouds: few clouds at 1000 feet AGL
Weather: no significant weather observed at this time

Forecast for: AMD
Text: TAF AMD LEPA 171834Z 1718/1818 31008KT 9999 FEW025 TX16/1814Z TN03/1806Z
Forecast period: 1800 UTC 17 January 2020 to 0000 UTC 18 January 2020
Forecast type: FROM: standard forecast or significant change
Winds: from the NW (310 degrees) at 9 MPH (8 knots; 4.1 m/s)
Visibility: 6 or more miles 10+ km)
Ceiling: at least 12,000 feet AGL
Clouds: few clouds at 2500 feet AGL
Weather: no significant weather forecast for this period
Text: BECMG 1800/1802 06004KT
Forecast period: 0000 to 1000 UTC 18 January 2020
Forecast type: BECOMING: Conditions expected to become as follows by 0200 UTC 18 January 2020
Winds: from the ENE (60 degrees) at 5 MPH (4 knots; 2.1 m/s)
Visibility: 6 or more miles 10+ km)
Ceiling: at least 12,000 feet AGL
Clouds: few clouds at 2500 feet AGL
Weather: no significant weather forecast for this period
Text: BECMG 1810/1812 22008KT
Forecast period: 1000 to 1800 UTC 18 January 2020
Forecast type: BECOMING: Conditions expected to become as follows by 1200 UTC 18 January 2020
Winds: from the SW (220 degrees) at 9 MPH (8 knots; 4.1 m/s)
Visibility: 6 or more miles 10+ km)
Ceiling: at least 12,000 feet AGL
Clouds: few clouds at 2500 feet AGL
Weather: no significant weather forecast for this period

MAPA DE AEROPUERTO

INFORMACIÓN DE PISTA
Pista 06L Longitud 10728 ft Ancho 148 ft
Elevación 15 ft Umbral desplazado 0 ft Rumbo de pista 59
Pista 24R Longitud 10728 ft Ancho 148 ft
Elevación 8 ft Umbral desplazado 230 ft Rumbo de pista 239
Pista 06R Longitud 9842 ft Ancho 148 ft
Elevación 24 ft Umbral desplazado 1345 ft Rumbo de pista 59
Pista 24L Longitud 9842 ft Ancho 148 ft
Elevación 8 ft Umbral desplazado 0 ft Rumbo de pista 239

FRECUANCIAS DEL AEROPUERTO
Tipo APP Nombre APP Frecuencia 118.95 MHZ
Tipo ATIS Nombre ATIS Frecuencia 119.25 MHZ
Tipo CLD Nombre CLNC DEL Frecuencia 121.6 MHZ
Tipo GND Nombre GND Frecuencia 121.7 MHZ
Tipo OPS Nombre OPS Frecuencia 130.25 MHZ
Tipo TWR Nombre TWR Frecuencia 118.3 MHZ

RADIO AYUDAS DEL AEROPUERTO